Canton, MN (55922)

11:48 PM CDT on July 28, 2016 (GMT -0500)
Burroak | | Change Station

Elev 1293 ft 43.47 °N, 91.85 °W | Updated 4 minutes ago

Overcast
Overcast
63.4 °F
Feels Like 63.4 °F
N
5.0
Wind Variable Wind from North
Gusts 9.0 mph

Today
High -- | Low -- °F
--% Chance of Precip.
Yesterday
High -- | Low -- °F
Precip. -- in
Pressure 30.02 in
Visibility 10.0 miles
Clouds Overcast 600 ft
Dew Point 60 °F
Humidity 91%
Rainfall in
Snow Depth Not available.
5:53 AM 8:34 PM
Waning Crescent, 25% visible
METAR KFKA 290433Z AUTO 03008KT 10SM OVC006 17/15 A3002 RMK AO2 T01670153 TSNO
Pressure 30.02 in
Visibility 10.0 miles
Clouds Overcast 600 ft
Dew Point 60 °F
Humidity 91%
Rainfall in
Snow Depth Not available.
5:53 AM 8:34 PM
Waning Crescent, 25% visible
METAR KFKA 290433Z AUTO 03008KT 10SM OVC006 17/15 A3002 RMK AO2 T01670153 TSNO

10-Day Weather Forecast

Almanac

Astronomy

Jul. 28, 2016 Rise Set
Actual Time
Civil Twilight
Nautical Twilight
Astronomical Twilight
Moon
Length of Visible Light
Length of Day
Tomorrow will be .
, % of the Moon is Illuminated

Today's Extremes

State Highs State Lows

Community

WunderPhotos

Upload Photos

1,928,294 photos uploaded!

WunderBlog® & News

Nearby

Air Quality

  Air Quality AQ Index Pollutant
Not available.

Snow Depth

Station Depth Elevation

Earthquake Activity

City Distance Mag. Time & Date
Minimum magnitude displayed is 2.5.

Coastal Water Temperatures

Place Temperature

Stations

Nearby Weather Stations

Station Location Temp. Windchill Dew Point Humidity Wind Precip. Elev Updated Type
                   

Watches & Warnings

There are currently no watches in effect.